createdAt,value
2023-01-30T00:00:53.008Z,101038.13
2023-01-30T00:03:19.959Z,101042.63
2023-01-30T00:05:46.449Z,101047.16
2023-01-30T00:08:12.952Z,101035.16
2023-01-30T00:10:39.380Z,101040.41
2023-01-30T00:13:05.932Z,101046.31
2023-01-30T00:15:32.342Z,101046.06
2023-01-30T00:17:58.780Z,101039.41
2023-01-30T00:20:25.256Z,101032.72
2023-01-30T00:23:00.465Z,101017.94
2023-01-30T00:25:27.834Z,101012.97
2023-01-30T00:27:54.325Z,101002.16
2023-01-30T00:30:20.775Z,100991.50
2023-01-30T00:32:47.308Z,100968.00
2023-01-30T00:35:13.707Z,100955.13
2023-01-30T00:37:40.166Z,100955.66
2023-01-30T00:40:06.896Z,100955.94
2023-01-30T00:42:52.063Z,100958.72
2023-01-30T00:45:36.860Z,100970.81
2023-01-30T00:48:03.305Z,100956.56
2023-01-30T00:50:42.310Z,100958.00
2023-01-30T00:53:12.769Z,100959.41
2023-01-30T00:55:39.657Z,100954.94
2023-01-30T00:58:06.448Z,100949.03
2023-01-30T01:00:33.120Z,100960.81
2023-01-30T01:02:59.638Z,100948.50
2023-01-30T01:05:26.653Z,100944.00
2023-01-30T01:07:53.072Z,100947.34
2023-01-30T01:10:19.550Z,100947.06
2023-01-30T01:12:46.794Z,100952.41
2023-01-30T01:15:13.929Z,100932.81
2023-01-30T01:17:41.523Z,100936.19
2023-01-30T01:20:08.981Z,100916.88
2023-01-30T01:22:35.570Z,100933.09
2023-01-30T01:25:02.002Z,100904.28
2023-01-30T01:27:29.138Z,100897.88
2023-01-30T01:29:55.536Z,100901.50
2023-01-30T01:32:22.274Z,100916.31
2023-01-30T01:34:48.747Z,100916.63
2023-01-30T01:37:15.264Z,100914.09
2023-01-30T01:39:59.976Z,100894.78
2023-01-30T01:42:35.933Z,100909.34
2023-01-30T01:45:13.199Z,100908.81
2023-01-30T01:47:42.535Z,100904.91
2023-01-30T01:50:16.589Z,100892.34
2023-01-30T01:52:43.528Z,100883.38
2023-01-30T01:55:09.962Z,100874.47
2023-01-30T01:57:47.603Z,100871.94
2023-01-30T02:00:17.087Z,100878.63
2023-01-30T02:02:49.414Z,100876.69
2023-01-30T02:05:16.700Z,100879.78
2023-01-30T02:08:06.082Z,100868.88
2023-01-30T02:10:47.659Z,100853.50
2023-01-30T02:13:14.042Z,100845.97
2023-01-30T02:15:42.774Z,100856.88
2023-01-30T02:18:18.135Z,100854.91
2023-01-30T02:21:22.403Z,100861.94
2023-01-30T02:24:16.040Z,100861.94
2023-01-30T02:27:03.665Z,100861.94
2023-01-30T02:29:55.044Z,100848.53
2023-01-30T02:32:46.411Z,100850.47
2023-01-30T02:35:32.648Z,100846.25
2023-01-30T02:38:22.244Z,100854.66
2023-01-30T02:41:07.170Z,100851.59
2023-01-30T02:43:44.790Z,100852.16
2023-01-30T02:46:15.813Z,100840.97
2023-01-30T02:49:06.839Z,100835.09
2023-01-30T02:51:35.958Z,100829.50
2023-01-30T02:54:02.647Z,100840.44
2023-01-30T02:56:29.052Z,100844.38
2023-01-30T02:58:59.721Z,100838.22
2023-01-30T03:02:08.019Z,100851.34
2023-01-30T03:04:53.331Z,100847.44
2023-01-30T03:07:38.577Z,100846.34
2023-01-30T03:10:37.358Z,100839.06
2023-01-30T03:13:38.078Z,100847.44
2023-01-30T03:16:40.528Z,100845.75
2023-01-30T03:19:12.379Z,100831.22
2023-01-30T03:21:44.485Z,100816.66
2023-01-30T03:24:11.667Z,100827.59
2023-01-30T03:26:45.871Z,100820.88
2023-01-30T03:29:12.362Z,100815.56
2023-01-30T03:31:38.753Z,100815.28
2023-01-30T03:34:05.223Z,100816.97
2023-01-30T03:36:31.611Z,100817.50
2023-01-30T03:38:59.150Z,100816.97
2023-01-30T03:41:25.615Z,100807.47
2023-01-30T03:43:52.026Z,100804.94
2023-01-30T03:46:18.351Z,100794.31
2023-01-30T03:48:44.869Z,100788.72
2023-01-30T03:51:11.246Z,100790.09
2023-01-30T03:53:37.609Z,100784.22
2023-01-30T03:56:04.257Z,100787.59
2023-01-30T03:58:30.613Z,100775.28
2023-01-30T04:00:59.964Z,100770.22
2023-01-30T04:03:26.425Z,100769.97
2023-01-30T04:05:52.869Z,100757.66
2023-01-30T04:08:19.219Z,100753.16
2023-01-30T04:10:45.578Z,100755.97
2023-01-30T04:13:11.975Z,100756.53
2023-01-30T04:15:38.308Z,100741.69
2023-01-30T04:18:05.440Z,100740.59
2023-01-30T04:20:31.831Z,100741.44
2023-01-30T04:22:58.329Z,100739.47
2023-01-30T04:25:24.735Z,100732.19
2023-01-30T04:27:51.120Z,100736.66
2023-01-30T04:30:17.800Z,100730.53
2023-01-30T04:32:44.349Z,100729.38
2023-01-30T04:35:10.921Z,100726.56
2023-01-30T04:37:37.383Z,100732.19
2023-01-30T04:40:04.180Z,100714.28
2023-01-30T04:42:30.674Z,100708.13
2023-01-30T04:44:57.157Z,100714.56
2023-01-30T04:47:23.643Z,100708.41
2023-01-30T04:49:49.992Z,100709.25
2023-01-30T04:52:16.350Z,100704.50
2023-01-30T04:54:42.712Z,100698.63
2023-01-30T04:57:09.108Z,100701.16
2023-01-30T04:59:35.468Z,100705.63
2023-01-30T05:02:01.909Z,100697.75
2023-01-30T05:04:28.547Z,100699.44
2023-01-30T05:06:54.946Z,100708.97
2023-01-30T05:09:21.370Z,100691.88
2023-01-30T05:11:47.757Z,100696.66
2023-01-30T05:14:14.164Z,100684.06
2023-01-30T05:16:40.598Z,100676.78
2023-01-30T05:19:06.994Z,100661.94
2023-01-30T05:21:33.403Z,100668.94
2023-01-30T05:23:59.836Z,100678.75
2023-01-30T05:26:26.371Z,100678.19
2023-01-30T05:28:56.691Z,100682.38
2023-01-30T05:31:23.353Z,100683.19
2023-01-30T05:33:51.900Z,100687.13
2023-01-30T05:36:19.877Z,100674.81
2023-01-30T05:38:46.460Z,100658.56
2023-01-30T05:41:14.047Z,100661.09
2023-01-30T05:43:40.723Z,100652.97
2023-01-30T05:46:10.421Z,100657.16
2023-01-30T05:48:37.026Z,100656.91
2023-01-30T05:51:03.453Z,100655.78
2023-01-30T05:53:34.405Z,100643.44
2023-01-30T05:56:03.428Z,100651.56
2023-01-30T05:58:30.343Z,100654.09
2023-01-30T06:01:04.399Z,100648.78
2023-01-30T06:03:30.868Z,100647.94
2023-01-30T06:05:57.329Z,100652.13
2023-01-30T06:08:23.856Z,100647.94
2023-01-30T06:10:50.504Z,100633.66
2023-01-30T06:13:17.020Z,100638.97
2023-01-30T06:15:43.491Z,100631.13
2023-01-30T06:18:12.258Z,100638.41
2023-01-30T06:20:38.639Z,100622.44
2023-01-30T06:23:05.014Z,100632.81
2023-01-30T06:25:31.453Z,100616.00
2023-01-30T06:27:57.906Z,100621.91
2023-01-30T06:30:24.333Z,100639.25
2023-01-30T06:32:51.530Z,100627.75
2023-01-30T06:35:18.213Z,100639.53
2023-01-30T06:37:45.607Z,100635.06
2023-01-30T06:40:12.915Z,100639.25
2023-01-30T06:42:39.246Z,100632.81
2023-01-30T06:45:06.142Z,100630.25
2023-01-30T06:47:32.717Z,100651.00
2023-01-30T06:49:59.142Z,100648.19
2023-01-30T06:52:25.625Z,100656.31
2023-01-30T06:54:51.953Z,100661.06
2023-01-30T06:57:18.365Z,100672.00
2023-01-30T06:59:44.747Z,100670.31
2023-01-30T07:02:13.042Z,100667.25
2023-01-30T07:04:39.669Z,100672.28
2023-01-30T07:07:07.137Z,100685.44
2023-01-30T07:09:33.599Z,100688.78
2023-01-30T07:11:59.970Z,100676.19
2023-01-30T07:14:26.344Z,100678.44
2023-01-30T07:16:52.777Z,100688.50
2023-01-30T07:19:19.200Z,100704.19
2023-01-30T07:21:45.631Z,100710.09
2023-01-30T07:24:12.146Z,100700.84
2023-01-30T07:26:38.565Z,100675.38
2023-01-30T07:29:07.844Z,100680.13
2023-01-30T07:31:34.232Z,100680.13
2023-01-30T07:34:00.613Z,100675.66
2023-01-30T07:36:27.042Z,100668.94
2023-01-30T07:38:53.431Z,100675.09
2023-01-30T07:41:19.964Z,100674.81
2023-01-30T07:43:48.799Z,100693.56
2023-01-30T07:46:15.189Z,100693.84
2023-01-30T07:48:44.646Z,100688.22
2023-01-30T07:51:10.998Z,100683.47
2023-01-30T07:53:37.511Z,100683.47
2023-01-30T07:56:10.876Z,100680.38
2023-01-30T07:58:37.295Z,100670.84
2023-01-30T08:01:03.718Z,100674.50
2023-01-30T08:03:30.130Z,100669.19
2023-01-30T08:05:56.723Z,100655.44
2023-01-30T08:08:23.057Z,100647.03
2023-01-30T08:10:49.548Z,100634.16
2023-01-30T08:13:15.948Z,100621.00
2023-01-30T08:15:42.383Z,100627.72
2023-01-30T08:18:08.810Z,100640.31
2023-01-30T08:20:36.149Z,100626.88
2023-01-30T08:23:03.089Z,100628.84
2023-01-30T08:25:29.635Z,100619.59
2023-01-30T08:27:56.151Z,100620.16
2023-01-30T08:30:22.996Z,100627.13
2023-01-30T08:32:49.469Z,100632.16
2023-01-30T08:35:15.921Z,100642.53
2023-01-30T08:37:42.730Z,100643.38
2023-01-30T08:40:09.869Z,100626.28
2023-01-30T08:42:36.230Z,100627.91
2023-01-30T08:45:02.666Z,100617.25
2023-01-30T08:47:29.156Z,100589.78
2023-01-30T08:49:55.651Z,100606.59
2023-01-30T08:52:22.153Z,100589.75
2023-01-30T08:54:48.702Z,100590.88
2023-01-30T08:57:15.557Z,100600.09
2023-01-30T08:59:41.949Z,100594.50
2023-01-30T09:02:10.337Z,100596.13
2023-01-30T09:04:36.744Z,100583.22
2023-01-30T09:07:03.394Z,100592.47
2023-01-30T09:09:29.943Z,100590.22
2023-01-30T09:11:56.303Z,100583.75
2023-01-30T09:14:23.003Z,100591.56
2023-01-30T09:16:55.703Z,100589.78
2023-01-30T09:19:23.603Z,100550.22
2023-01-30T09:21:50.948Z,100575.69
2023-01-30T09:24:17.446Z,100569.19
2023-01-30T09:26:45.173Z,100578.66
2023-01-30T09:29:15.104Z,100570.44
2023-01-30T09:31:41.601Z,100568.44
2023-01-30T09:34:08.017Z,100568.69
2023-01-30T09:36:34.435Z,100576.97
2023-01-30T09:39:00.893Z,100573.53
2023-01-30T09:42:05.781Z,100583.34
2023-01-30T09:44:58.024Z,100577.16
2023-01-30T09:47:24.321Z,100602.47
2023-01-30T09:50:06.424Z,100602.19
2023-01-30T09:52:52.168Z,100592.63
2023-01-30T09:55:21.493Z,100582.78
2023-01-30T09:57:48.912Z,100567.53
2023-01-30T10:00:23.373Z,100559.38
2023-01-30T10:03:04.837Z,100566.94
2023-01-30T10:05:50.415Z,100546.59
2023-01-30T10:08:38.643Z,100554.16
2023-01-30T10:11:38.744Z,100551.19
2023-01-30T10:14:14.178Z,100553.97
2023-01-30T10:17:01.240Z,100552.22
2023-01-30T10:19:39.513Z,100536.69
2023-01-30T10:22:44.388Z,100536.56
2023-01-30T10:25:32.887Z,100541.16
2023-01-30T10:28:28.297Z,100535.47
2023-01-30T10:31:18.790Z,100526.63
2023-01-30T10:33:58.033Z,100542.00
2023-01-30T10:36:35.388Z,100518.56
2023-01-30T10:39:04.489Z,100533.28
2023-01-30T10:41:42.582Z,100524.50
2023-01-30T10:44:11.252Z,100517.34
2023-01-30T10:46:48.718Z,100532.50
2023-01-30T10:49:23.022Z,100534.34
2023-01-30T10:52:18.913Z,100532.44
2023-01-30T10:55:04.054Z,100538.06
2023-01-30T10:57:33.388Z,100544.94
2023-01-30T11:00:10.393Z,100536.22
2023-01-30T11:03:05.983Z,100536.47
2023-01-30T11:06:02.124Z,100534.72
2023-01-30T11:08:35.850Z,100526.78
2023-01-30T11:11:25.019Z,100534.81
2023-01-30T11:13:51.530Z,100526.50
2023-01-30T11:16:18.336Z,100524.38
2023-01-30T11:21:44.081Z,100540.47
2023-01-30T11:24:16.884Z,100538.63
2023-01-30T11:26:47.733Z,100541.72
2023-01-30T11:29:28.932Z,100539.31
2023-01-30T11:31:56.042Z,100531.59
2023-01-30T11:34:23.802Z,100543.19
2023-01-30T11:36:50.715Z,100551.75
2023-01-30T11:39:21.025Z,100566.16
2023-01-30T11:41:53.432Z,100576.81
2023-01-30T11:44:29.228Z,100573.59
2023-01-30T11:47:02.670Z,100576.72
2023-01-30T11:49:49.277Z,100571.50
2023-01-30T11:52:19.307Z,100565.22
2023-01-30T11:54:46.075Z,100548.00
2023-01-30T11:57:17.231Z,100544.19
2023-01-30T12:00:33.806Z,100531.19
2023-01-30T12:03:05.191Z,100532.47
2023-01-30T12:05:34.556Z,100543.72
2023-01-30T12:08:17.486Z,100531.09
2023-01-30T12:10:48.869Z,100530.72
2023-01-30T12:13:32.077Z,100522.28
2023-01-30T12:16:18.625Z,100516.63
2023-01-30T12:19:05.474Z,100518.47
2023-01-30T12:22:13.897Z,100516.09
2023-01-30T12:24:59.120Z,100503.69
2023-01-30T12:27:32.520Z,100510.78
2023-01-30T12:30:19.252Z,100522.69
2023-01-30T12:32:45.946Z,100504.41
2023-01-30T12:35:17.709Z,100501.28
2023-01-30T12:37:56.743Z,100502.50
2023-01-30T12:40:30.302Z,100498.13
2023-01-30T12:43:13.894Z,100504.66
2023-01-30T12:46:02.299Z,100518.72
2023-01-30T12:49:07.840Z,100516.09
2023-01-30T12:51:42.404Z,100527.38
2023-01-30T12:54:28.838Z,100520.53
2023-01-30T12:57:22.605Z,100529.56
2023-01-30T12:59:54.830Z,100538.13
2023-01-30T13:02:36.629Z,100531.22
2023-01-30T13:05:34.123Z,100533.75
2023-01-30T13:08:18.618Z,100541.28
2023-01-30T13:11:16.132Z,100531.34
2023-01-30T13:13:53.423Z,100537.81
2023-01-30T13:16:29.542Z,100544.94
2023-01-30T13:19:06.737Z,100547.66
2023-01-30T13:21:38.052Z,100551.00
2023-01-30T13:24:35.864Z,100554.03
2023-01-30T13:27:06.257Z,100546.53
2023-01-30T13:29:37.768Z,100539.72
2023-01-30T13:32:06.657Z,100547.88
2023-01-30T13:34:39.827Z,100564.47
2023-01-30T13:37:13.503Z,100558.50
2023-01-30T13:39:45.052Z,100562.69
2023-01-30T13:42:33.313Z,100564.78
2023-01-30T13:45:00.487Z,100565.72
2023-01-30T13:47:40.972Z,100553.50
2023-01-30T13:50:26.999Z,100565.63
2023-01-30T13:53:05.374Z,100566.44
2023-01-30T13:55:57.047Z,100565.81
2023-01-30T13:58:32.167Z,100579.94
2023-01-30T14:00:58.672Z,100574.06
2023-01-30T14:03:31.396Z,100571.34
2023-01-30T14:06:01.061Z,100571.66
2023-01-30T14:08:39.861Z,100559.22
2023-01-30T14:11:28.967Z,100567.69
2023-01-30T14:14:00.660Z,100565.50
2023-01-30T14:16:40.475Z,100578.78
2023-01-30T14:19:36.102Z,100585.91
2023-01-30T14:22:19.134Z,100596.25
2023-01-30T14:24:45.596Z,100595.72
2023-01-30T14:27:27.353Z,100612.88
2023-01-30T14:29:54.744Z,100611.22
2023-01-30T14:32:22.288Z,100608.50
2023-01-30T14:35:00.661Z,100604.97
2023-01-30T14:37:41.614Z,100606.44
2023-01-30T14:40:23.374Z,100609.53
2023-01-30T14:43:11.689Z,100609.97
2023-01-30T14:45:49.879Z,100626.06
2023-01-30T14:48:20.996Z,100636.34
2023-01-30T14:50:47.494Z,100652.13
2023-01-30T14:53:14.420Z,100643.66
2023-01-30T14:55:40.862Z,100656.16
2023-01-30T14:58:15.359Z,100663.28
2023-01-30T15:00:41.788Z,100675.09
2023-01-30T15:03:17.060Z,100672.25
2023-01-30T15:05:44.672Z,100676.44
2023-01-30T15:08:17.030Z,100674.56
2023-01-30T15:10:49.409Z,100668.28
2023-01-30T15:13:32.443Z,100661.63
2023-01-30T15:16:31.142Z,100675.50
2023-01-30T15:19:20.807Z,100683.22
2023-01-30T15:21:53.196Z,100684.06
2023-01-30T15:24:26.843Z,100707.06
2023-01-30T15:27:14.963Z,100702.69
2023-01-30T15:30:19.151Z,100712.81
2023-01-30T15:32:45.713Z,100703.53
2023-01-30T15:35:18.736Z,100715.13
2023-01-30T15:37:53.060Z,100707.19
2023-01-30T15:40:22.226Z,100720.38
2023-01-30T15:43:00.624Z,100710.22
2023-01-30T15:45:50.245Z,100710.75
2023-01-30T15:48:37.614Z,100721.19
2023-01-30T15:51:04.598Z,100715.94
2023-01-30T15:53:36.414Z,100732.31
2023-01-30T15:56:06.895Z,100724.84
2023-01-30T15:58:36.447Z,100730.06
2023-01-30T16:01:02.958Z,100731.00
2023-01-30T16:03:36.554Z,100740.50
2023-01-30T16:06:03.860Z,100753.53
2023-01-30T16:08:33.138Z,100753.19
2023-01-30T16:11:00.737Z,100761.34
2023-01-30T16:13:28.474Z,100762.69
2023-01-30T16:16:10.409Z,100773.03
2023-01-30T16:18:39.105Z,100775.28
2023-01-30T16:21:08.424Z,100781.97
2023-01-30T16:23:54.551Z,100795.31
2023-01-30T16:26:21.980Z,100791.72
2023-01-30T16:28:49.798Z,100806.91
2023-01-30T16:31:17.622Z,100815.50
2023-01-30T16:33:53.424Z,100810.34
2023-01-30T16:36:19.776Z,100819.41
2023-01-30T16:38:47.403Z,100817.34
2023-01-30T16:41:36.421Z,100823.59
2023-01-30T16:44:11.854Z,100823.88
2023-01-30T16:46:41.160Z,100814.34
2023-01-30T16:49:16.910Z,100814.66
2023-01-30T16:51:43.382Z,100808.19
2023-01-30T16:54:21.714Z,100804.47
2023-01-30T16:56:50.968Z,100818.50
2023-01-30T16:59:21.138Z,100820.97
2023-01-30T17:01:47.862Z,100829.38
2023-01-30T17:04:21.269Z,100824.50
2023-01-30T17:07:00.680Z,100834.00
2023-01-30T17:09:35.567Z,100835.50
2023-01-30T17:12:28.123Z,100848.34
2023-01-30T17:15:09.748Z,100847.50
2023-01-30T17:17:36.067Z,100851.19
2023-01-30T17:20:02.625Z,100858.25
2023-01-30T17:22:29.033Z,100866.41
2023-01-30T17:24:59.436Z,100871.31
2023-01-30T17:27:27.388Z,100875.47
2023-01-30T17:29:53.845Z,100877.47
2023-01-30T17:32:20.619Z,100892.72
2023-01-30T17:34:47.443Z,100883.63
2023-01-30T17:37:15.977Z,100894.16
2023-01-30T17:39:42.364Z,100906.28
2023-01-30T17:42:13.112Z,100909.41
2023-01-30T17:44:40.197Z,100915.13
2023-01-30T17:47:09.116Z,100917.56
2023-01-30T17:49:35.441Z,100919.00
2023-01-30T17:52:01.821Z,100922.13
2023-01-30T17:54:30.065Z,100929.28
2023-01-30T17:57:00.155Z,100941.16
2023-01-30T17:59:26.939Z,100946.81
2023-01-30T18:01:53.878Z,100952.09
2023-01-30T18:04:20.933Z,100954.38
2023-01-30T18:06:50.462Z,100963.09
2023-01-30T18:09:19.397Z,100969.63
2023-01-30T18:11:46.217Z,100968.22
2023-01-30T18:14:12.596Z,100968.53
2023-01-30T18:16:39.015Z,100972.28
2023-01-30T18:19:08.558Z,100975.94
2023-01-30T18:21:36.405Z,100981.03
2023-01-30T18:24:02.846Z,100988.66
2023-01-30T18:26:30.011Z,100992.06
2023-01-30T18:28:56.874Z,101001.09
2023-01-30T18:31:25.093Z,100996.94
2023-01-30T18:33:52.328Z,100999.84
2023-01-30T18:36:19.830Z,101007.41
2023-01-30T18:38:46.418Z,101004.09
2023-01-30T18:41:15.437Z,101003.22
2023-01-30T18:43:42.642Z,101011.06
2023-01-30T18:46:14.743Z,101016.41
2023-01-30T18:48:41.780Z,101015.06
2023-01-30T18:51:22.665Z,101021.63
2023-01-30T18:53:49.712Z,101018.16
2023-01-30T18:56:21.377Z,101017.25
2023-01-30T18:58:52.336Z,100999.91
2023-01-30T19:01:21.071Z,101007.53
2023-01-30T19:03:47.687Z,101015.75
2023-01-30T19:06:15.441Z,101018.06
2023-01-30T19:08:42.028Z,101029.56
2023-01-30T19:11:29.419Z,101034.91
2023-01-30T19:13:56.193Z,101037.16
2023-01-30T19:16:24.501Z,101042.78
2023-01-30T19:18:51.128Z,101062.78
2023-01-30T19:21:17.773Z,101072.66
2023-01-30T19:23:44.557Z,101073.81
2023-01-30T19:26:10.965Z,101069.94
2023-01-30T19:28:37.957Z,101069.28
2023-01-30T19:31:09.240Z,101071.09
2023-01-30T19:33:36.175Z,101065.75
2023-01-30T19:36:12.878Z,101076.47
2023-01-30T19:38:39.990Z,101071.75
2023-01-30T19:41:14.219Z,101075.75
2023-01-30T19:43:41.599Z,101080.78
2023-01-30T19:46:08.615Z,101079.38
2023-01-30T19:48:35.101Z,101081.34
2023-01-30T19:51:35.830Z,101084.16
2023-01-30T19:54:04.956Z,101095.16
2023-01-30T19:56:32.153Z,101100.53
2023-01-30T19:59:00.205Z,101095.75
2023-01-30T20:01:29.389Z,101096.88
2023-01-30T20:03:56.413Z,101097.72
2023-01-30T20:06:27.819Z,101096.56
2023-01-30T20:08:58.180Z,101106.63
2023-01-30T20:11:24.700Z,101094.84
2023-01-30T20:13:51.547Z,101095.50
2023-01-30T20:16:20.533Z,101100.88
2023-01-30T20:18:48.316Z,101104.25
2023-01-30T20:21:19.100Z,101107.47
2023-01-30T20:23:46.811Z,101119.63
2023-01-30T20:26:16.657Z,101123.84
2023-01-30T20:28:43.494Z,101123.88
2023-01-30T20:31:15.722Z,101120.47
2023-01-30T20:33:42.668Z,101123.88
2023-01-30T20:36:11.434Z,101130.94
2023-01-30T20:38:39.416Z,101128.09
2023-01-30T20:41:11.237Z,101144.75
2023-01-30T20:43:39.687Z,101139.94
2023-01-30T20:46:11.908Z,101159.97
2023-01-30T20:48:38.643Z,101151.75
2023-01-30T20:51:10.034Z,101154.03
2023-01-30T20:53:37.232Z,101165.03
2023-01-30T20:56:04.787Z,101154.31
2023-01-30T20:58:31.465Z,101150.94
2023-01-30T21:01:18.021Z,101155.72
2023-01-30T21:03:47.836Z,101165.03
2023-01-30T21:06:14.280Z,101153.44
2023-01-30T21:09:01.194Z,101165.88
2023-01-30T21:11:27.784Z,101165.09
2023-01-30T21:13:54.244Z,101169.88
2023-01-30T21:16:26.428Z,101169.91
2023-01-30T21:18:55.087Z,101177.50
2023-01-30T21:21:33.157Z,101174.66
2023-01-30T21:24:02.899Z,101181.69
2023-01-30T21:26:30.770Z,101188.16
2023-01-30T21:28:57.713Z,101198.91
2023-01-30T21:31:26.650Z,101201.72
2023-01-30T21:33:56.039Z,101213.22
2023-01-30T21:36:22.541Z,101217.78
2023-01-30T21:39:07.380Z,101225.97
2023-01-30T21:41:45.675Z,101225.41
2023-01-30T21:44:13.089Z,101232.22
2023-01-30T21:46:45.248Z,101242.06
2023-01-30T21:49:12.131Z,101254.47
2023-01-30T21:51:41.655Z,101241.50
2023-01-30T21:54:08.296Z,101248.59
2023-01-30T21:56:34.887Z,101240.19
2023-01-30T21:59:02.636Z,101252.34
2023-01-30T22:01:29.968Z,101244.13
2023-01-30T22:03:59.237Z,101246.72
2023-01-30T22:06:25.693Z,101242.78
2023-01-30T22:08:56.287Z,101255.19
2023-01-30T22:11:22.719Z,101262.28
2023-01-30T22:13:49.340Z,101256.97
2023-01-30T22:16:18.023Z,101259.81
2023-01-30T22:18:47.293Z,101263.53
2023-01-30T22:21:15.707Z,101269.41
2023-01-30T22:23:44.606Z,101270.00
2023-01-30T22:26:12.877Z,101272.53
2023-01-30T22:28:39.704Z,101266.06
2023-01-30T22:31:08.148Z,101276.81
2023-01-30T22:33:35.023Z,101278.78
2023-01-30T22:36:03.282Z,101272.88
2023-01-30T22:38:29.751Z,101274.84
2023-01-30T22:41:11.652Z,101269.53
2023-01-30T22:43:38.346Z,101270.66
2023-01-30T22:46:07.063Z,101274.59
2023-01-30T22:48:34.432Z,101284.47
2023-01-30T22:51:13.128Z,101287.28
2023-01-30T22:53:42.156Z,101293.78
2023-01-30T22:56:10.999Z,101285.59
2023-01-30T22:58:38.170Z,101280.84
2023-01-30T23:01:12.092Z,101298.56
2023-01-30T23:03:39.435Z,101295.75
2023-01-30T23:06:07.759Z,101297.16
2023-01-30T23:08:38.143Z,101296.88
2023-01-30T23:11:13.455Z,101298.56
2023-01-30T23:13:44.671Z,101297.72
2023-01-30T23:16:12.184Z,101295.75
2023-01-30T23:18:57.187Z,101301.09
2023-01-30T23:21:37.058Z,101292.94
2023-01-30T23:24:09.486Z,101294.31
2023-01-30T23:26:38.215Z,101285.03
2023-01-30T23:29:07.644Z,101294.31
2023-01-30T23:31:34.707Z,101287.31
2023-01-30T23:34:03.932Z,101304.13
2023-01-30T23:36:30.481Z,101300.16
2023-01-30T23:38:58.719Z,101299.03
2023-01-30T23:41:27.420Z,101295.09
2023-01-30T23:43:54.237Z,101288.38
2023-01-30T23:46:25.310Z,101279.09
2023-01-30T23:48:57.040Z,101285.25
2023-01-30T23:51:26.686Z,101283.88
2023-01-30T23:53:53.480Z,101301.59
2023-01-30T23:56:21.951Z,101303.03
2023-01-30T23:58:49.822Z,101292.06
